sensor_id;sensor_type;location;lat;lon;timestamp;pressure;altitude;pressure_sealevel;temperature;humidity
15558;BME280;7880;50.110;9.372;2024-02-23T00:01:13;6.8922685044410175;;;6.812;100.0
15558;BME280;7880;50.110;9.372;2024-02-23T00:06:27;6.851931773830438;;;6.75;100.0
15558;BME280;7880;50.110;9.372;2024-02-23T00:11:33;6.831763415510068;;;6.687;100.0
15558;BME280;7880;50.110;9.372;2024-02-23T00:16:37;6.735963777080178;;;6.625;100.0
15558;BME280;7880;50.110;9.372;2024-02-23T00:21:40;6.77630045413971;;;6.625;100.0
15558;BME280;7880;50.110;9.372;2024-02-23T00:26:47;6.604869705275632;;;6.562;100.0
15558;BME280;7880;50.110;9.372;2024-02-23T00:31:54;6.56453310737852;;;6.5;100.0
15558;BME280;7880;50.110;9.372;2024-02-23T00:37:00;6.554448960814625;;;6.437;100.0
15558;BME280;7880;50.110;9.372;2024-02-23T00:42:21;6.4586496265197635;;;6.375;100.0
15558;BME280;7880;50.110;9.372;2024-02-23T00:47:20;6.377976584393764;;;6.312;100.0
15558;BME280;7880;50.110;9.372;2024-02-23T00:52:18;6.367892459366703;;;6.25;100.0
15558;BME280;7880;50.110;9.372;2024-02-23T00:57:29;6.3225139111513275;;;6.25;100.0
15558;BME280;7880;50.110;9.372;2024-02-23T01:02:30;6.246883049845929;;;6.187;100.0
15558;BME280;7880;50.110;9.372;2024-02-23T01:07:36;6.25192510522902;;;6.125;100.0
15558;BME280;7880;50.110;9.372;2024-02-23T01:12:45;6.186378407949815;;;6.125;100.0
15558;BME280;7880;50.110;9.372;2024-02-23T01:17:50;6.176294305041665;;;6.125;100.0
15558;BME280;7880;50.110;9.372;2024-02-23T01:22:54;6.140999954030849;;;6.062;100.0
15558;BME280;7880;50.110;9.372;2024-02-23T01:28:04;6.120831759856083;;;6.0;100.0
15558;BME280;7880;50.110;9.372;2024-02-23T01:33:10;6.0552851609478235;;;5.937;100.0
15558;BME280;7880;50.110;9.372;2024-02-23T01:38:20;5.888897861540317;;;5.875;100.0
15558;BME280;7880;50.110;9.372;2024-02-23T01:43:23;5.914108038047561;;;5.875;100.0
15558;BME280;7880;50.110;9.372;2024-02-23T01:48:32;5.934276184492046;;;5.875;100.0
15558;BME280;7880;50.110;9.372;2024-02-23T01:53:38;5.813267375674331;;;5.75;100.0
15558;BME280;7880;50.110;9.372;2024-02-23T01:58:46;5.843519562162692;;;5.75;100.0
15558;BME280;7880;50.110;9.372;2024-02-23T02:03:50;5.848561594262719;;;5.75;100.0
15558;BME280;7880;50.110;9.372;2024-02-23T02:08:57;5.762847088143462;;;5.687;100.0
15558;BME280;7880;50.110;9.372;2024-02-23T02:14:04;5.651922558021033;;;5.562;100.0
15558;BME280;7880;50.110;9.372;2024-02-23T02:19:14;5.631754476769129;;;5.562;100.0
15558;BME280;7880;50.110;9.372;2024-02-23T02:24:18;5.601502363622421;;;5.5;100.0
15558;BME280;7880;50.110;9.372;2024-02-23T02:29:26;5.546040183398873;;;5.437;100.0
15558;BME280;7880;50.110;9.372;2024-02-23T02:34:31;5.455283964448609;;;5.437;100.0
15558;BME280;7880;50.110;9.372;2024-02-23T02:39:37;5.389737864962081;;;5.312;100.0
15558;BME280;7880;50.110;9.372;2024-02-23T02:44:44;5.37461184898857;;;5.312;100.0
15558;BME280;7880;50.110;9.372;2024-02-23T02:49:51;5.304023809079081;;;5.25;100.0
15558;BME280;7880;50.110;9.372;2024-02-23T02:54:32;5.213267841585912;;;5.187;100.0
15558;BME280;7880;50.110;9.372;2024-02-23T02:59:45;5.228393829619745;;;5.125;100.0
15558;BME280;7880;50.110;9.372;2024-02-23T03:04:47;5.092260031611659;;;5.062;100.0
15558;BME280;7880;50.110;9.372;2024-02-23T03:09:54;5.1527639156440275;;;5.0;100.0
15558;BME280;7880;50.110;9.372;2024-02-23T03:14:59;5.117469978198642;;;5.0;100.0
15558;BME280;7880;50.110;9.372;2024-02-23T03:20:11;5.067050092300633;;;4.937;100.0
15558;BME280;7880;50.110;9.372;2024-02-23T03:25:14;4.935958525171737;;;4.875;100.0
15558;BME280;7880;50.110;9.372;2024-02-23T03:30:22;4.860328864399344;;;4.812;100.0
15558;BME280;7880;50.110;9.372;2024-02-23T03:35:28;4.860328864399344;;;4.75;100.0
15558;BME280;7880;50.110;9.372;2024-02-23T03:40:39;4.71915367282927;;;4.687;100.0
15558;BME280;7880;50.110;9.372;2024-02-23T03:45:48;4.5477269612485545;;;4.562;100.0
15558;BME280;7880;50.110;9.372;2024-02-23T03:50:48;4.49730740422383;;;4.437;100.0
15558;BME280;7880;50.110;9.372;2024-02-23T03:55:54;4.42672007328365;;;4.437;100.0
15558;BME280;7880;50.110;9.372;2024-02-23T04:01:05;4.346048907772638;;;4.312;100.0
15558;BME280;7880;50.110;9.372;2024-02-23T04:06:08;4.552768918551737;;;4.437;100.0
15558;BME280;7880;50.110;9.372;2024-02-23T04:11:19;4.492265450122067;;;4.437;100.0
15558;BME280;7880;50.110;9.372;2024-02-23T04:16:24;4.421678123256425;;;4.375;100.0
15558;BME280;7880;50.110;9.372;2024-02-23T04:21:29;4.255293935630471;;;4.187;100.0
15558;BME280;7880;50.110;9.372;2024-02-23T04:26:36;4.225042299204506;;;4.125;100.0
15558;BME280;7880;50.110;9.372;2024-02-23T04:31:42;4.144371319958009;;;4.125;100.0
15558;BME280;7880;50.110;9.372;2024-02-23T04:36:48;4.174622928444296;;;4.062;100.0
15558;BME280;7880;50.110;9.372;2024-02-23T04:41:54;4.078826204180951;;;4.0;100.0
15558;BME280;7880;50.110;9.372;2024-02-23T04:47:01;4.098993926873663;;;4.062;100.0
15558;BME280;7880;50.110;9.372;2024-02-23T04:52:09;4.008239211427281;;;4.0;100.0
15558;BME280;7880;50.110;9.372;2024-02-23T04:57:19;4.098993926873663;;;4.062;100.0
15558;BME280;7880;50.110;9.372;2024-02-23T05:02:20;4.10907778996625;;;4.0;100.0
15558;BME280;7880;50.110;9.372;2024-02-23T05:07:30;3.937652275717119;;;3.937;100.0
15558;BME280;7880;50.110;9.372;2024-02-23T05:12:34;4.063700415217317;;;3.937;100.0
15558;BME280;7880;50.110;9.372;2024-02-23T05:17:55;3.897316909494111;;;3.875;100.0
15558;BME280;7880;50.110;9.372;2024-02-23T05:22:48;4.1141197219491;;;3.937;100.0
15558;BME280;7880;50.110;9.372;2024-02-23T05:27:54;4.083868134417571;;;4.062;100.0
15558;BME280;7880;50.110;9.372;2024-02-23T05:33:05;3.937652275717119;;;3.937;100.0
15558;BME280;7880;50.110;9.372;2024-02-23T05:38:08;3.8721073150634764;;;3.875;100.0
15558;BME280;7880;50.110;9.372;2024-02-23T05:43:30;3.816646232927451;;;3.812;100.0
15558;BME280;7880;50.110;9.372;2024-02-23T05:48:22;3.836813895084197;;;3.812;100.0
15558;BME280;7880;50.110;9.372;2024-02-23T05:53:33;3.8116043181158603;;;3.812;100.0
15558;BME280;7880;50.110;9.372;2024-02-23T05:58:39;3.8116043181158603;;;3.75;100.0
15558;BME280;7880;50.110;9.372;2024-02-23T06:03:41;3.7561432743968908;;;3.75;100.0
15558;BME280;7880;50.110;9.372;2024-02-23T06:08:50;3.7410175413126128;;;3.687;100.0
15558;BME280;7880;50.110;9.372;2024-02-23T06:13:55;3.746059452049667;;;3.75;100.0
15558;BME280;7880;50.110;9.372;2024-02-23T06:19:04;3.7511013630777597;;;3.75;100.0
15558;BME280;7880;50.110;9.372;2024-02-23T06:24:15;3.665388915181393;;;3.625;100.0
15558;BME280;7880;50.110;9.372;2024-02-23T06:29:20;3.7107660830020905;;;3.625;100.0
15558;BME280;7880;50.110;9.372;2024-02-23T06:34:22;3.635137483064318;;;3.625;100.0
15558;BME280;7880;50.110;9.372;2024-02-23T06:39:30;3.614969867473701;;;3.625;100.0
15558;BME280;7880;50.110;9.372;2024-02-23T06:44:38;3.7107660830020905;;;3.687;100.0
15558;BME280;7880;50.110;9.372;2024-02-23T06:49:51;3.5242156549415085;;;3.562;100.0
15558;BME280;7880;50.110;9.372;2024-02-23T06:54:53;3.746059452049667;;;3.687;100.0
15558;BME280;7880;50.110;9.372;2024-02-23T07:00:01;3.6754727282153907;;;3.687;100.0
15558;BME280;7880;50.110;9.372;2024-02-23T07:05:09;3.7863947484234814;;;3.687;100.0
15558;BME280;7880;50.110;9.372;2024-02-23T07:10:15;3.851939644757658;;;3.75;100.0
15558;BME280;7880;50.110;9.372;2024-02-23T07:15:23;3.836813895084197;;;3.75;100.0
15558;BME280;7880;50.110;9.372;2024-02-23T07:20:32;3.9679038126079833;;;3.875;100.0
15558;BME280;7880;50.110;9.372;2024-02-23T07:25:37;3.9679038126079833;;;3.937;100.0
15558;BME280;7880;50.110;9.372;2024-02-23T07:30:51;3.9174845902773088;;;3.937;100.0
15558;BME280;7880;50.110;9.372;2024-02-23T07:35:55;4.013281137589365;;;4.0;100.0
15558;BME280;7880;50.110;9.372;2024-02-23T07:40:58;3.9477361201832535;;;3.937;100.0
15558;BME280;7880;50.110;9.372;2024-02-23T07:46:05;4.154455188289285;;;4.062;100.0
15558;BME280;7880;50.110;9.372;2024-02-23T07:51:15;4.129245519643883;;;4.062;100.0
15558;BME280;7880;50.110;9.372;2024-02-23T07:56:13;4.290587524703005;;;4.125;100.0
15558;BME280;7880;50.110;9.372;2024-02-23T08:00:47;4.174622928444296;;;4.125;100.0
15558;BME280;7880;50.110;9.372;2024-02-23T08:05:54;4.330923072533915;;;4.187;100.0
15558;BME280;7880;50.110;9.372;2024-02-23T08:11:02;4.280503640655661;;;4.25;100.0
15558;BME280;7880;50.110;9.372;2024-02-23T08:16:08;4.5275591349462045;;;4.375;100.0
15558;BME280;7880;50.110;9.372;2024-02-23T08:21:19;4.517475223541259;;;4.437;100.0
15558;BME280;7880;50.110;9.372;2024-02-23T08:26:22;4.633440274983878;;;4.5;100.0
15558;BME280;7880;50.110;9.372;2024-02-23T08:31:29;4.814951099368045;;;4.625;100.0
15558;BME280;7880;50.110;9.372;2024-02-23T08:36:37;4.673775981139625;;;4.562;100.0
15558;BME280;7880;50.110;9.372;2024-02-23T08:41:44;4.78469926911057;;;4.687;100.0
15558;BME280;7880;50.110;9.372;2024-02-23T08:46:52;4.860328864399344;;;4.75;100.0
15558;BME280;7880;50.110;9.372;2024-02-23T08:51:58;4.855286889342824;;;4.75;100.0
15558;BME280;7880;50.110;9.372;2024-02-23T08:57:04;4.678817945718765;;;4.625;100.0
15558;BME280;7880;50.110;9.372;2024-02-23T09:02:11;4.542685004236409;;;4.562;100.0
15558;BME280;7880;50.110;9.372;2024-02-23T09:07:20;4.7040277729800435;;;4.687;100.0
15558;BME280;7880;50.110;9.372;2024-02-23T09:12:26;4.996462300937855;;;4.812;100.0
15558;BME280;7880;50.110;9.372;2024-02-23T09:17:30;4.875454791315133;;;4.812;100.0
15558;BME280;7880;50.110;9.372;2024-02-23T09:22:37;5.001504284143448;;;4.937;100.0
15558;BME280;7880;50.110;9.372;2024-02-23T09:27:45;5.031756189488806;;;4.937;100.0
15558;BME280;7880;50.110;9.372;2024-02-23T09:32:51;5.001504284143448;;;5.0;100.0
15558;BME280;7880;50.110;9.372;2024-02-23T09:38:01;5.198141856171423;;;5.062;100.0
15558;BME280;7880;50.110;9.372;2024-02-23T09:43:07;5.2888978079485245;;;5.187;100.0
15558;BME280;7880;50.110;9.372;2024-02-23T09:48:13;5.1527639156440275;;;5.125;100.0
15558;BME280;7880;50.110;9.372;2024-02-23T09:53:25;5.359485835634405;;;5.25;100.0
15558;BME280;7880;50.110;9.372;2024-02-23T09:58:29;5.414947897405364;;;5.312;100.0
15558;BME280;7880;50.110;9.372;2024-02-23T10:03:35;5.576292277337052;;;5.437;100.0
15558;BME280;7880;50.110;9.372;2024-02-23T10:08:41;5.359485835634405;;;5.375;100.0
15558;BME280;7880;50.110;9.372;2024-02-23T10:13:50;5.5258721265941855;;;5.437;100.0
15558;BME280;7880;50.110;9.372;2024-02-23T10:18:53;5.662006600393215;;;5.625;100.0
15558;BME280;7880;50.110;9.372;2024-02-23T10:24:05;5.722510879073525;;;5.625;100.0
15558;BME280;7880;50.110;9.372;2024-02-23T10:29:09;5.994780651765177;;;5.875;100.0
15558;BME280;7880;50.110;9.372;2024-02-23T10:34:14;6.040159029723145;;;6.0;100.0
15558;BME280;7880;50.110;9.372;2024-02-23T10:39:24;6.367892459366703;;;6.187;100.0
15558;BME280;7880;50.110;9.372;2024-02-23T10:44:28;6.549406887969235;;;6.437;100.0
15558;BME280;7880;50.110;9.372;2024-02-23T10:49:36;6.630080088420073;;;6.5;100.0
15558;BME280;7880;50.110;9.372;2024-02-23T10:54:46;6.2115886703133585;;;6.187;100.0
15558;BME280;7880;50.110;9.372;2024-02-23T10:59:49;6.0956215236859865;;;6.062;100.0
15558;BME280;7880;50.110;9.372;2024-02-23T11:04:59;6.146042003302137;;;6.062;100.0
15558;BME280;7880;50.110;9.372;2024-02-23T11:10:04;6.075453339988599;;;6.0;100.0
15558;BME280;7880;50.110;9.372;2024-02-23T11:15:25;6.090579477325082;;;6.0;100.0
15558;BME280;7880;50.110;9.372;2024-02-23T11:20:20;6.18133635635022;;;6.062;100.0
15558;BME280;7880;50.110;9.372;2024-02-23T11:25:27;6.1157897120399864;;;6.0;100.0
15558;BME280;7880;50.110;9.372;2024-02-23T11:30:31;5.848561594262719;;;5.875;100.0
15558;BME280;7880;50.110;9.372;2024-02-23T11:35:46;5.959486374096014;;;5.875;100.0
15558;BME280;7880;50.110;9.372;2024-02-23T11:40:50;6.1157897120399864;;;6.062;100.0
15558;BME280;7880;50.110;9.372;2024-02-23T11:45:52;5.994780651765177;;;6.0;100.0
15558;BME280;7880;50.110;9.372;2024-02-23T11:50:58;6.18133635635022;;;6.062;100.0
15558;BME280;7880;50.110;9.372;2024-02-23T11:56:06;6.31242979252711;;;6.187;100.0
15558;BME280;7880;50.110;9.372;2024-02-23T12:01:20;6.272093329671771;;;6.187;100.0
15558;BME280;7880;50.110;9.372;2024-02-23T12:06:18;6.478817898692796;;;6.375;100.0
15558;BME280;7880;50.110;9.372;2024-02-23T12:11:28;6.498986175522441;;;6.375;100.0
15558;BME280;7880;50.110;9.372;2024-02-23T12:16:33;6.463691694126465;;;6.437;100.0
15558;BME280;7880;50.110;9.372;2024-02-23T12:21:46;6.645206321799196;;;6.5;100.0
15558;BME280;7880;50.110;9.372;2024-02-23T12:26:45;6.549406887969235;;;6.562;100.0
15558;BME280;7880;50.110;9.372;2024-02-23T12:32:02;6.670416716585168;;;6.562;100.0
15558;BME280;7880;50.110;9.372;2024-02-23T12:36:58;6.594785554055124;;;6.562;100.0
15558;BME280;7880;50.110;9.372;2024-02-23T12:42:06;6.7510900287947155;;;6.687;100.0
15558;BME280;7880;50.110;9.372;2024-02-23T12:47:13;6.841847594088176;;;6.75;100.0
15558;BME280;7880;50.110;9.372;2024-02-23T12:52:20;6.897310597077012;;;6.812;100.0
15558;BME280;7880;50.110;9.372;2024-02-23T12:57:29;6.851931773830438;;;6.812;100.0
15558;BME280;7880;50.110;9.372;2024-02-23T13:02:35;6.8922685044410175;;;6.875;100.0
15558;BME280;7880;50.110;9.372;2024-02-23T13:06:58;6.877142228279263;;;6.875;100.0
15558;BME280;7880;50.110;9.372;2024-02-23T13:12:03;7.214963019877905;;;7.125;100.0
15558;BME280;7880;50.110;9.372;2024-02-23T13:17:10;7.295636835001642;;;7.187;100.0
15558;BME280;7880;50.110;9.372;2024-02-23T13:22:19;7.139331385865807;;;7.125;100.0
15558;BME280;7880;50.110;9.372;2024-02-23T13:27:24;7.179668249189854;;;7.125;100.0
15558;BME280;7880;50.110;9.372;2024-02-23T13:32:33;7.174626140255714;;;7.062;100.0
15558;BME280;7880;50.110;9.372;2024-02-23T13:37:40;7.098994541168213;;;7.062;100.0
15558;BME280;7880;50.110;9.372;2024-02-23T13:42:46;6.856973864138126;;;6.812;100.0
15558;BME280;7880;50.110;9.372;2024-02-23T13:47:56;6.771258368488634;;;6.75;100.0
15558;BME280;7880;50.110;9.372;2024-02-23T13:52:59;6.625038011209108;;;6.625;100.0
15558;BME280;7880;50.110;9.372;2024-02-23T13:58:09;6.59982762951986;;;6.562;100.0
15558;BME280;7880;50.110;9.372;2024-02-23T14:03:16;6.504028245457448;;;6.5;100.0
15558;BME280;7880;50.110;9.372;2024-02-23T14:08:20;6.604869705275632;;;6.562;100.0
15558;BME280;7880;50.110;9.372;2024-02-23T14:13:28;6.660332557797664;;;6.625;100.0
15558;BME280;7880;50.110;9.372;2024-02-23T14:18:57;6.796468799654394;;;6.687;100.0
15558;BME280;7880;50.110;9.372;2024-02-23T14:23:41;6.862015954736853;;;6.75;100.0
15558;BME280;7880;50.110;9.372;2024-02-23T14:28:47;6.9023526900040455;;;6.812;100.0
15558;BME280;7880;50.110;9.372;2024-02-23T14:33:53;6.841847594088176;;;6.812;100.0
15558;BME280;7880;50.110;9.372;2024-02-23T14:39:01;6.882184320042143;;;6.812;100.0
15558;BME280;7880;50.110;9.372;2024-02-23T14:44:08;6.8922685044410175;;;6.812;100.0
15558;BME280;7880;50.110;9.372;2024-02-23T14:49:14;6.786384626314975;;;6.75;100.0
15558;BME280;7880;50.110;9.372;2024-02-23T14:54:21;6.8872264120960605;;;6.875;100.0
15558;BME280;7880;50.110;9.372;2024-02-23T14:59:27;7.018320907652378;;;6.937;100.0
15558;BME280;7880;50.110;9.372;2024-02-23T15:04:35;7.093952436890686;;;7.0;100.0
15558;BME280;7880;50.110;9.372;2024-02-23T15:09:40;7.03344720826135;;;7.0;100.0
15558;BME280;7880;50.110;9.372;2024-02-23T15:14:46;6.882184320042143;;;6.875;100.0
15558;BME280;7880;50.110;9.372;2024-02-23T15:19:54;6.771258368488634;;;6.75;100.0
15558;BME280;7880;50.110;9.372;2024-02-23T15:25:05;6.619995934289181;;;6.625;100.0
15558;BME280;7880;50.110;9.372;2024-02-23T15:30:09;6.7006691999326;;;6.625;100.0
15558;BME280;7880;50.110;9.372;2024-02-23T15:35:15;7.154457707429538;;;7.125;100.0
15558;BME280;7880;50.110;9.372;2024-02-23T15:40:22;6.559491033951053;;;6.625;100.0
15558;BME280;7880;50.110;9.372;2024-02-23T15:45:29;6.695627118647098;;;6.687;100.0
15558;BME280;7880;50.110;9.372;2024-02-23T15:50:34;6.705711281509139;;;6.625;100.0
15558;BME280;7880;50.110;9.372;2024-02-23T15:55:46;6.514112386200577;;;6.5;100.0
15558;BME280;7880;50.110;9.372;2024-02-23T16:00:58;6.509070315683493;;;6.5;100.0
15558;BME280;7880;50.110;9.372;2024-02-23T16:05:55;6.514112386200577;;;6.5;100.0
15558;BME280;7880;50.110;9.372;2024-02-23T16:11:02;6.468733762024203;;;6.437;100.0
15558;BME280;7880;50.110;9.372;2024-02-23T16:16:11;6.498986175522441;;;6.5;100.0
15558;BME280;7880;50.110;9.372;2024-02-23T16:21:16;6.388060710584978;;;6.375;100.0
15558;BME280;7880;50.110;9.372;2024-02-23T16:26:22;6.337640091270441;;;6.312;100.0
15558;BME280;7880;50.110;9.372;2024-02-23T16:31:33;6.3225139111513275;;;6.312;100.0
15558;BME280;7880;50.110;9.372;2024-02-23T16:36:36;6.388060710584978;;;6.312;100.0
15558;BME280;7880;50.110;9.372;2024-02-23T16:41:42;6.201504564494826;;;6.25;100.0
15558;BME280;7880;50.110;9.372;2024-02-23T16:46:51;5.959486374096014;;;5.937;100.0
15558;BME280;7880;50.110;9.372;2024-02-23T16:52:06;5.8989819312701;;;5.875;100.0
15558;BME280;7880;50.110;9.372;2024-02-23T16:57:03;5.848561594262719;;;5.875;100.0
15558;BME280;7880;50.110;9.372;2024-02-23T17:02:11;5.7073848054744305;;;5.75;100.0
15558;BME280;7880;50.110;9.372;2024-02-23T17:07:20;5.712426829716423;;;5.75;100.0
15558;BME280;7880;50.110;9.372;2024-02-23T17:12:23;5.863687692309031;;;5.75;100.0
15558;BME280;7880;50.110;9.372;2024-02-23T17:17:33;5.586376310978085;;;5.625;100.0
15558;BME280;7880;50.110;9.372;2024-02-23T17:22:36;5.3796538540220356;;;5.437;100.0
15558;BME280;7880;50.110;9.372;2024-02-23T17:27:44;5.18301587337628;;;5.187;100.0
15558;BME280;7880;50.110;9.372;2024-02-23T17:33:02;5.172931886301376;;;5.187;100.0
15558;BME280;7880;50.110;9.372;2024-02-23T17:38:00;4.986378335399786;;;5.062;100.0
15558;BME280;7880;50.110;9.372;2024-02-23T17:43:04;4.900664675328881;;;4.875;100.0
15558;BME280;7880;50.110;9.372;2024-02-23T17:48:11;4.724195640027756;;;4.75;100.0
15558;BME280;7880;50.110;9.372;2024-02-23T17:53:19;4.623356351355324;;;4.75;100.0
15558;BME280;7880;50.110;9.372;2024-02-23T17:58:24;4.391426429204875;;;4.5;100.0
15558;BME280;7880;50.110;9.372;2024-02-23T18:03:31;4.280503640655661;;;4.312;100.0
15558;BME280;7880;50.110;9.372;2024-02-23T18:08:47;4.230084237881238;;;4.312;100.0
15558;BME280;7880;50.110;9.372;2024-02-23T18:13:07;4.386384481214918;;;4.375;100.0
15558;BME280;7880;50.110;9.372;2024-02-23T18:18:19;4.325881128036417;;;4.312;100.0
15558;BME280;7880;50.110;9.372;2024-02-23T18:23:22;4.169580992968986;;;4.187;100.0
15558;BME280;7880;50.110;9.372;2024-02-23T18:28:32;4.179664864210645;;;4.125;100.0
15558;BME280;7880;50.110;9.372;2024-02-23T18:33:33;3.902358829253353;;;4.0;100.0
15558;BME280;7880;50.110;9.372;2024-02-23T18:38:43;3.851939644757658;;;3.937;100.0
15558;BME280;7880;50.110;9.372;2024-02-23T18:43:47;3.897316909494111;;;3.937;100.0
15558;BME280;7880;50.110;9.372;2024-02-23T18:48:53;3.776310922583798;;;3.812;100.0
15558;BME280;7880;50.110;9.372;2024-02-23T18:54:02;3.8569815618975554;;;3.812;100.0
15558;BME280;7880;50.110;9.372;2024-02-23T18:59:06;4.05865848614485;;;3.937;100.0
15558;BME280;7880;50.110;9.372;2024-02-23T19:04:12;4.098993926873663;;;3.937;100.0
15558;BME280;7880;50.110;9.372;2024-02-23T19:09:21;3.912442669644952;;;3.875;100.0
15558;BME280;7880;50.110;9.372;2024-02-23T19:14:27;3.6401793876895683;;;3.75;100.0
15558;BME280;7880;50.110;9.372;2024-02-23T19:19:37;3.7511013630777597;;;3.687;100.0
15558;BME280;7880;50.110;9.372;2024-02-23T19:24:48;3.776310922583798;;;3.625;100.0
15558;BME280;7880;50.110;9.372;2024-02-23T19:29:45;3.7561432743968908;;;3.75;100.0
15558;BME280;7880;50.110;9.372;2024-02-23T19:34:51;3.6905984499491753;;;3.687;100.0
15558;BME280;7880;50.110;9.372;2024-02-23T19:40:00;3.5191737570101393;;;3.625;100.0
15558;BME280;7880;50.110;9.372;2024-02-23T19:45:07;3.614969867473701;;;3.625;100.0
15558;BME280;7880;50.110;9.372;2024-02-23T19:50:15;3.776310922583798;;;3.687;100.0
15558;BME280;7880;50.110;9.372;2024-02-23T19:55:19;3.685556542413542;;;3.687;100.0
15558;BME280;7880;50.110;9.372;2024-02-23T20:00:28;3.3981682939687743;;;3.5;100.0
15558;BME280;7880;50.110;9.372;2024-02-23T20:05:35;3.549425148963928;;;3.437;100.0
15558;BME280;7880;50.110;9.372;2024-02-23T20:10:40;3.7410175413126128;;;3.75;100.0
15558;BME280;7880;50.110;9.372;2024-02-23T20:15:46;3.897316909494111;;;3.812;100.0
15558;BME280;7880;50.110;9.372;2024-02-23T20:20:53;3.4637128989736086;;;3.687;100.0
15558;BME280;7880;50.110;9.372;2024-02-23T20:26:02;3.448587216529995;;;3.562;100.0
15558;BME280;7880;50.110;9.372;2024-02-23T20:31:06;3.2670792315155266;;;3.25;100.0
15558;BME280;7880;50.110;9.372;2024-02-23T20:36:14;3.146074117720127;;;3.062;100.0
15558;BME280;7880;50.110;9.372;2024-02-23T20:41:30;3.322539964696625;;;3.25;100.0
15558;BME280;7880;50.110;9.372;2024-02-23T20:46:31;3.181367258593673;;;3.25;100.0
15558;BME280;7880;50.110;9.372;2024-02-23T20:51:37;3.1964928947621956;;;3.187;100.0
15558;BME280;7880;50.110;9.372;2024-02-23T20:56:43;2.979692359972978;;;3.062;100.0
15558;BME280;7880;50.110;9.372;2024-02-23T21:01:47;2.94944116534316;;;2.937;100.0
15558;BME280;7880;50.110;9.372;2024-02-23T21:06:54;2.7981853493547533;;;2.875;100.0
15558;BME280;7880;50.110;9.372;2024-02-23T21:12:00;2.788101637602085;;;2.75;100.0
15558;BME280;7880;50.110;9.372;2024-02-23T21:17:07;2.7729760721558705;;;2.687;100.0
15558;BME280;7880;50.110;9.372;2024-02-23T21:22:13;2.5965113354905043;;;2.625;100.0
15558;BME280;7880;50.110;9.372;2024-02-23T21:27:23;2.6217205617576838;;;2.625;100.0
15558;BME280;7880;50.110;9.372;2024-02-23T21:32:30;2.430130624608137;;;2.5;100.0
15558;BME280;7880;50.110;9.372;2024-02-23T21:37:35;2.54105106331408;;;2.437;100.0
15558;BME280;7880;50.110;9.372;2024-02-23T21:42:51;2.329293984384276;;;2.375;100.0
15558;BME280;7880;50.110;9.372;2024-02-23T21:47:51;2.2990430150181056;;;2.25;100.0
15558;BME280;7880;50.110;9.372;2024-02-23T21:52:54;2.3192103267647326;;;2.25;100.0
15558;BME280;7880;50.110;9.372;2024-02-23T21:58:03;2.2637502306664827;;;2.187;100.0
15558;BME280;7880;50.110;9.372;2024-02-23T22:03:07;2.0721610787382816;;;2.062;100.0
15558;BME280;7880;50.110;9.372;2024-02-23T22:08:14;1.794861734751612;;;1.687;100.0
15558;BME280;7880;50.110;9.372;2024-02-23T22:13:24;2.011659328598762;;;1.812;100.0
15558;BME280;7880;50.110;9.372;2024-02-23T22:18:33;2.0721610787382816;;;2.0;100.0
15558;BME280;7880;50.110;9.372;2024-02-23T22:23:36;2.0570356372743843;;;2.125;100.0
15558;BME280;7880;50.110;9.372;2024-02-23T22:28:42;1.7898199366463814;;;1.875;100.0
15558;BME280;7880;50.110;9.372;2024-02-23T22:33:48;1.7444437667960302;;;1.812;100.0
15558;BME280;7880;50.110;9.372;2024-02-23T22:38:55;1.51252148905769;;;1.562;100.0
15558;BME280;7880;50.110;9.372;2024-02-23T22:44:03;1.6587332880648318;;;1.562;100.0
15558;BME280;7880;50.110;9.372;2024-02-23T22:49:10;1.7091512065439018;;;1.687;100.0
15558;BME280;7880;50.110;9.372;2024-02-23T22:54:14;1.784778138832189;;;1.75;100.0
15558;BME280;7880;50.110;9.372;2024-02-23T22:59:21;1.6889840356598143;;;1.75;100.0
15558;BME280;7880;50.110;9.372;2024-02-23T23:04:30;1.6083153986895922;;;1.5;100.0
15558;BME280;7880;50.110;9.372;2024-02-23T23:09:35;1.6284825509472285;;;1.625;100.0
15558;BME280;7880;50.110;9.372;2024-02-23T23:14:40;1.623440762446262;;;1.687;100.0
15558;BME280;7880;50.110;9.372;2024-02-23T23:19:19;1.7091512065439018;;;1.75;100.0
15558;BME280;7880;50.110;9.372;2024-02-23T23:24:23;1.4822708025807514;;;1.562;100.0
15558;BME280;7880;50.110;9.372;2024-02-23T23:29:30;1.588148251088569;;;1.562;100.0
15558;BME280;7880;50.110;9.372;2024-02-23T23:34:42;1.6637750786030665;;;1.687;100.0
15558;BME280;7880;50.110;9.372;2024-02-23T23:39:44;1.4217694610590115;;;1.5;100.0
15558;BME280;7880;50.110;9.372;2024-02-23T23:44:53;1.3663099348137622;;;1.437;100.0
15558;BME280;7880;50.110;9.372;2024-02-23T23:49:58;1.356226388370851;;;1.312;100.0
15558;BME280;7880;50.110;9.372;2024-02-23T23:55:08;1.51252148905769;;;1.375;100.0
